sensor_id;sensor_type;location;lat;lon;timestamp;temperature;humidity
23124;DHT22;11731;48.592;8.858;2022-10-17T00:01:43;16.50;99.90
23124;DHT22;11731;48.592;8.858;2022-10-17T00:04:10;16.40;99.90
23124;DHT22;11731;48.592;8.858;2022-10-17T00:06:39;16.10;99.90
23124;DHT22;11731;48.592;8.858;2022-10-17T00:09:07;16.00;99.90
23124;DHT22;11731;48.592;8.858;2022-10-17T00:11:35;15.90;99.90
23124;DHT22;11731;48.592;8.858;2022-10-17T00:14:02;16.10;99.90
23124;DHT22;11731;48.592;8.858;2022-10-17T00:16:30;16.10;99.90
23124;DHT22;11731;48.592;8.858;2022-10-17T00:18:58;16.20;99.90
23124;DHT22;11731;48.592;8.858;2022-10-17T00:21:26;16.20;99.90
23124;DHT22;11731;48.592;8.858;2022-10-17T00:23:53;16.20;99.90
23124;DHT22;11731;48.592;8.858;2022-10-17T00:26:21;16.10;99.90
23124;DHT22;11731;48.592;8.858;2022-10-17T00:28:49;16.10;99.90
23124;DHT22;11731;48.592;8.858;2022-10-17T00:31:18;16.00;99.90
23124;DHT22;11731;48.592;8.858;2022-10-17T00:33:46;16.00;99.90
23124;DHT22;11731;48.592;8.858;2022-10-17T00:36:14;16.00;99.90
23124;DHT22;11731;48.592;8.858;2022-10-17T00:38:43;16.00;99.90
23124;DHT22;11731;48.592;8.858;2022-10-17T00:41:16;15.90;99.90
23124;DHT22;11731;48.592;8.858;2022-10-17T00:43:53;15.90;99.90
23124;DHT22;11731;48.592;8.858;2022-10-17T00:46:22;15.80;99.90
23124;DHT22;11731;48.592;8.858;2022-10-17T00:48:51;15.80;99.90
23124;DHT22;11731;48.592;8.858;2022-10-17T00:51:22;15.70;99.90
23124;DHT22;11731;48.592;8.858;2022-10-17T00:53:50;15.80;99.90
23124;DHT22;11731;48.592;8.858;2022-10-17T00:56:18;15.80;99.90
23124;DHT22;11731;48.592;8.858;2022-10-17T00:58:46;15.90;99.90
23124;DHT22;11731;48.592;8.858;2022-10-17T01:01:16;15.90;99.90
23124;DHT22;11731;48.592;8.858;2022-10-17T01:03:43;15.90;99.90
23124;DHT22;11731;48.592;8.858;2022-10-17T01:06:10;15.80;99.90
23124;DHT22;11731;48.592;8.858;2022-10-17T01:08:38;15.80;99.90
23124;DHT22;11731;48.592;8.858;2022-10-17T01:11:12;15.70;99.90
23124;DHT22;11731;48.592;8.858;2022-10-17T01:13:50;15.70;99.90
23124;DHT22;11731;48.592;8.858;2022-10-17T01:19:36;15.90;99.90
23124;DHT22;11731;48.592;8.858;2022-10-17T01:22:08;15.80;99.90
23124;DHT22;11731;48.592;8.858;2022-10-17T01:24:48;15.70;99.90
23124;DHT22;11731;48.592;8.858;2022-10-17T01:27:47;15.60;99.90
23124;DHT22;11731;48.592;8.858;2022-10-17T01:30:46;15.60;99.90
23124;DHT22;11731;48.592;8.858;2022-10-17T01:33:21;15.60;99.90
23124;DHT22;11731;48.592;8.858;2022-10-17T01:35:57;15.60;99.90
23124;DHT22;11731;48.592;8.858;2022-10-17T01:38:29;15.60;99.90
23124;DHT22;11731;48.592;8.858;2022-10-17T01:41:01;15.60;99.90
23124;DHT22;11731;48.592;8.858;2022-10-17T01:43:33;15.50;99.90
23124;DHT22;11731;48.592;8.858;2022-10-17T01:46:10;15.40;99.90
23124;DHT22;11731;48.592;8.858;2022-10-17T01:48:40;15.30;99.90
23124;DHT22;11731;48.592;8.858;2022-10-17T01:51:12;15.30;99.90
23124;DHT22;11731;48.592;8.858;2022-10-17T01:53:45;15.30;99.90
23124;DHT22;11731;48.592;8.858;2022-10-17T01:56:16;15.40;99.90
23124;DHT22;11731;48.592;8.858;2022-10-17T01:58:48;15.40;99.90
23124;DHT22;11731;48.592;8.858;2022-10-17T02:01:18;15.30;99.90
23124;DHT22;11731;48.592;8.858;2022-10-17T02:03:47;15.30;99.90
23124;DHT22;11731;48.592;8.858;2022-10-17T02:06:15;15.40;99.90
23124;DHT22;11731;48.592;8.858;2022-10-17T02:08:43;15.30;99.90
23124;DHT22;11731;48.592;8.858;2022-10-17T02:11:14;15.20;99.90
23124;DHT22;11731;48.592;8.858;2022-10-17T02:13:53;15.20;99.90
23124;DHT22;11731;48.592;8.858;2022-10-17T02:16:29;15.20;99.90
23124;DHT22;11731;48.592;8.858;2022-10-17T02:19:23;15.10;99.90
23124;DHT22;11731;48.592;8.858;2022-10-17T02:22:04;15.10;99.90
23124;DHT22;11731;48.592;8.858;2022-10-17T02:24:40;14.90;99.90
23124;DHT22;11731;48.592;8.858;2022-10-17T02:27:13;14.90;99.90
23124;DHT22;11731;48.592;8.858;2022-10-17T02:29:45;15.00;99.90
23124;DHT22;11731;48.592;8.858;2022-10-17T02:32:20;15.00;99.90
23124;DHT22;11731;48.592;8.858;2022-10-17T02:34:50;15.00;99.90
23124;DHT22;11731;48.592;8.858;2022-10-17T02:37:22;14.90;99.90
23124;DHT22;11731;48.592;8.858;2022-10-17T02:39:50;15.00;99.90
23124;DHT22;11731;48.592;8.858;2022-10-17T02:42:19;14.90;99.90
23124;DHT22;11731;48.592;8.858;2022-10-17T02:44:47;14.90;99.90
23124;DHT22;11731;48.592;8.858;2022-10-17T02:47:20;14.90;99.90
23124;DHT22;11731;48.592;8.858;2022-10-17T02:49:50;14.90;99.90
23124;DHT22;11731;48.592;8.858;2022-10-17T02:52:30;14.80;99.90
23124;DHT22;11731;48.592;8.858;2022-10-17T02:55:23;14.80;99.90
23124;DHT22;11731;48.592;8.858;2022-10-17T02:57:53;14.80;99.90
23124;DHT22;11731;48.592;8.858;2022-10-17T03:00:22;14.80;99.90
23124;DHT22;11731;48.592;8.858;2022-10-17T03:02:53;14.70;99.90
23124;DHT22;11731;48.592;8.858;2022-10-17T03:05:22;14.70;99.90
23124;DHT22;11731;48.592;8.858;2022-10-17T03:07:49;14.70;99.90
23124;DHT22;11731;48.592;8.858;2022-10-17T03:10:16;14.60;99.90
23124;DHT22;11731;48.592;8.858;2022-10-17T03:12:43;14.60;99.90
23124;DHT22;11731;48.592;8.858;2022-10-17T03:15:11;14.60;99.90
23124;DHT22;11731;48.592;8.858;2022-10-17T03:17:38;14.60;99.90
23124;DHT22;11731;48.592;8.858;2022-10-17T03:20:07;14.60;99.90
23124;DHT22;11731;48.592;8.858;2022-10-17T03:22:34;14.50;99.90
23124;DHT22;11731;48.592;8.858;2022-10-17T03:25:01;14.50;99.90
23124;DHT22;11731;48.592;8.858;2022-10-17T03:27:29;14.40;99.90
23124;DHT22;11731;48.592;8.858;2022-10-17T03:30:00;14.40;99.90
23124;DHT22;11731;48.592;8.858;2022-10-17T03:32:27;14.40;99.90
23124;DHT22;11731;48.592;8.858;2022-10-17T03:34:54;14.40;99.90
23124;DHT22;11731;48.592;8.858;2022-10-17T03:37:23;14.40;99.90
23124;DHT22;11731;48.592;8.858;2022-10-17T03:39:49;14.40;99.90
23124;DHT22;11731;48.592;8.858;2022-10-17T03:42:16;14.60;99.90
23124;DHT22;11731;48.592;8.858;2022-10-17T03:44:43;14.50;99.90
23124;DHT22;11731;48.592;8.858;2022-10-17T03:47:10;14.50;99.90
23124;DHT22;11731;48.592;8.858;2022-10-17T03:49:37;14.60;99.90
23124;DHT22;11731;48.592;8.858;2022-10-17T03:52:04;14.50;99.90
23124;DHT22;11731;48.592;8.858;2022-10-17T03:54:32;14.40;99.90
23124;DHT22;11731;48.592;8.858;2022-10-17T03:56:59;14.40;99.90
23124;DHT22;11731;48.592;8.858;2022-10-17T03:59:26;14.50;99.90
23124;DHT22;11731;48.592;8.858;2022-10-17T04:01:53;14.50;99.90
23124;DHT22;11731;48.592;8.858;2022-10-17T04:04:20;14.50;99.90
23124;DHT22;11731;48.592;8.858;2022-10-17T04:06:46;14.40;99.90
23124;DHT22;11731;48.592;8.858;2022-10-17T04:09:14;14.50;99.90
23124;DHT22;11731;48.592;8.858;2022-10-17T04:11:42;14.60;99.90
23124;DHT22;11731;48.592;8.858;2022-10-17T04:14:09;14.50;99.90
23124;DHT22;11731;48.592;8.858;2022-10-17T04:16:37;14.40;99.90
23124;DHT22;11731;48.592;8.858;2022-10-17T04:19:04;14.40;99.90
23124;DHT22;11731;48.592;8.858;2022-10-17T04:21:31;14.20;99.90
23124;DHT22;11731;48.592;8.858;2022-10-17T04:23:59;14.20;99.90
23124;DHT22;11731;48.592;8.858;2022-10-17T04:26:26;14.20;99.90
23124;DHT22;11731;48.592;8.858;2022-10-17T04:28:54;14.30;99.90
23124;DHT22;11731;48.592;8.858;2022-10-17T04:31:21;14.10;99.90
23124;DHT22;11731;48.592;8.858;2022-10-17T04:33:49;14.00;99.90
23124;DHT22;11731;48.592;8.858;2022-10-17T04:36:17;13.90;99.90
23124;DHT22;11731;48.592;8.858;2022-10-17T04:38:44;13.90;99.90
23124;DHT22;11731;48.592;8.858;2022-10-17T04:41:15;14.10;99.90
23124;DHT22;11731;48.592;8.858;2022-10-17T04:43:43;14.10;99.90
23124;DHT22;11731;48.592;8.858;2022-10-17T04:46:13;14.00;99.90
23124;DHT22;11731;48.592;8.858;2022-10-17T04:48:40;13.90;99.90
23124;DHT22;11731;48.592;8.858;2022-10-17T04:51:10;14.00;99.90
23124;DHT22;11731;48.592;8.858;2022-10-17T04:53:38;14.10;99.90
23124;DHT22;11731;48.592;8.858;2022-10-17T04:56:09;14.20;99.90
23124;DHT22;11731;48.592;8.858;2022-10-17T04:58:36;14.10;99.90
23124;DHT22;11731;48.592;8.858;2022-10-17T05:01:04;14.10;99.90
23124;DHT22;11731;48.592;8.858;2022-10-17T05:03:33;14.30;99.90
23124;DHT22;11731;48.592;8.858;2022-10-17T05:06:05;14.30;99.90
23124;DHT22;11731;48.592;8.858;2022-10-17T05:08:32;14.20;99.90
23124;DHT22;11731;48.592;8.858;2022-10-17T05:10:59;14.20;99.90
23124;DHT22;11731;48.592;8.858;2022-10-17T05:13:26;14.20;99.90
23124;DHT22;11731;48.592;8.858;2022-10-17T05:15:57;14.30;99.90
23124;DHT22;11731;48.592;8.858;2022-10-17T05:18:24;14.30;99.90
23124;DHT22;11731;48.592;8.858;2022-10-17T05:20:52;14.40;99.90
23124;DHT22;11731;48.592;8.858;2022-10-17T05:23:19;14.50;99.90
23124;DHT22;11731;48.592;8.858;2022-10-17T05:25:46;14.40;99.90
23124;DHT22;11731;48.592;8.858;2022-10-17T05:28:13;14.40;99.90
23124;DHT22;11731;48.592;8.858;2022-10-17T05:30:40;14.20;99.90
23124;DHT22;11731;48.592;8.858;2022-10-17T05:33:06;14.20;99.90
23124;DHT22;11731;48.592;8.858;2022-10-17T05:35:33;14.30;99.90
23124;DHT22;11731;48.592;8.858;2022-10-17T05:38:01;14.20;99.90
23124;DHT22;11731;48.592;8.858;2022-10-17T05:40:28;14.10;99.90
23124;DHT22;11731;48.592;8.858;2022-10-17T05:42:55;14.10;99.90
23124;DHT22;11731;48.592;8.858;2022-10-17T05:45:22;14.20;99.90
23124;DHT22;11731;48.592;8.858;2022-10-17T05:47:49;14.20;99.90
23124;DHT22;11731;48.592;8.858;2022-10-17T05:50:16;14.10;99.90
23124;DHT22;11731;48.592;8.858;2022-10-17T05:52:45;14.20;99.90
23124;DHT22;11731;48.592;8.858;2022-10-17T05:55:14;14.20;99.90
23124;DHT22;11731;48.592;8.858;2022-10-17T05:57:41;14.20;99.90
23124;DHT22;11731;48.592;8.858;2022-10-17T06:00:09;14.30;99.90
23124;DHT22;11731;48.592;8.858;2022-10-17T06:02:36;14.30;99.90
23124;DHT22;11731;48.592;8.858;2022-10-17T06:05:03;14.20;99.90
23124;DHT22;11731;48.592;8.858;2022-10-17T06:07:30;14.20;99.90
23124;DHT22;11731;48.592;8.858;2022-10-17T06:09:57;14.40;99.90
23124;DHT22;11731;48.592;8.858;2022-10-17T06:12:28;14.50;99.90
23124;DHT22;11731;48.592;8.858;2022-10-17T06:14:55;14.60;99.90
23124;DHT22;11731;48.592;8.858;2022-10-17T06:17:22;14.50;99.90
23124;DHT22;11731;48.592;8.858;2022-10-17T06:19:49;14.40;99.90
23124;DHT22;11731;48.592;8.858;2022-10-17T06:22:16;14.40;99.90
23124;DHT22;11731;48.592;8.858;2022-10-17T06:24:42;14.40;99.90
23124;DHT22;11731;48.592;8.858;2022-10-17T06:27:09;14.40;99.90
23124;DHT22;11731;48.592;8.858;2022-10-17T06:29:37;14.50;99.90
23124;DHT22;11731;48.592;8.858;2022-10-17T06:32:05;14.50;99.90
23124;DHT22;11731;48.592;8.858;2022-10-17T06:34:32;14.60;99.90
23124;DHT22;11731;48.592;8.858;2022-10-17T06:36:59;14.50;99.90
23124;DHT22;11731;48.592;8.858;2022-10-17T06:39:26;14.60;99.90
23124;DHT22;11731;48.592;8.858;2022-10-17T06:41:58;14.60;99.90
23124;DHT22;11731;48.592;8.858;2022-10-17T06:44:25;14.70;99.90
23124;DHT22;11731;48.592;8.858;2022-10-17T06:46:56;14.80;99.90
23124;DHT22;11731;48.592;8.858;2022-10-17T06:49:23;14.90;99.90
23124;DHT22;11731;48.592;8.858;2022-10-17T06:51:50;14.90;99.90
23124;DHT22;11731;48.592;8.858;2022-10-17T06:54:17;15.00;99.90
23124;DHT22;11731;48.592;8.858;2022-10-17T06:56:44;15.10;99.90
23124;DHT22;11731;48.592;8.858;2022-10-17T06:59:10;15.20;99.90
23124;DHT22;11731;48.592;8.858;2022-10-17T07:01:37;15.40;99.90
23124;DHT22;11731;48.592;8.858;2022-10-17T07:04:06;15.40;99.90
23124;DHT22;11731;48.592;8.858;2022-10-17T07:06:32;15.60;99.90
23124;DHT22;11731;48.592;8.858;2022-10-17T07:08:59;15.80;99.90
23124;DHT22;11731;48.592;8.858;2022-10-17T07:11:27;15.80;99.90
23124;DHT22;11731;48.592;8.858;2022-10-17T07:13:54;15.80;99.90
23124;DHT22;11731;48.592;8.858;2022-10-17T07:16:21;15.90;99.90
23124;DHT22;11731;48.592;8.858;2022-10-17T07:18:48;15.70;99.90
23124;DHT22;11731;48.592;8.858;2022-10-17T07:21:17;15.80;99.90
23124;DHT22;11731;48.592;8.858;2022-10-17T07:23:44;16.10;99.90
23124;DHT22;11731;48.592;8.858;2022-10-17T07:26:12;16.20;99.90
23124;DHT22;11731;48.592;8.858;2022-10-17T07:28:42;16.40;99.90
23124;DHT22;11731;48.592;8.858;2022-10-17T07:31:11;16.40;99.90
23124;DHT22;11731;48.592;8.858;2022-10-17T07:33:38;16.50;99.90
23124;DHT22;11731;48.592;8.858;2022-10-17T07:36:05;16.60;99.90
23124;DHT22;11731;48.592;8.858;2022-10-17T07:38:34;16.60;99.90
23124;DHT22;11731;48.592;8.858;2022-10-17T07:41:03;16.80;99.90
23124;DHT22;11731;48.592;8.858;2022-10-17T07:43:30;16.90;99.90
23124;DHT22;11731;48.592;8.858;2022-10-17T07:45:59;16.70;99.90
23124;DHT22;11731;48.592;8.858;2022-10-17T07:48:26;16.90;99.90
23124;DHT22;11731;48.592;8.858;2022-10-17T07:50:53;16.60;99.90
23124;DHT22;11731;48.592;8.858;2022-10-17T07:53:20;16.30;99.90
23124;DHT22;11731;48.592;8.858;2022-10-17T07:55:48;16.40;99.90
23124;DHT22;11731;48.592;8.858;2022-10-17T07:58:15;16.50;99.90
23124;DHT22;11731;48.592;8.858;2022-10-17T08:00:42;16.50;99.90
23124;DHT22;11731;48.592;8.858;2022-10-17T08:03:12;16.70;99.90
23124;DHT22;11731;48.592;8.858;2022-10-17T08:05:39;16.80;99.90
23124;DHT22;11731;48.592;8.858;2022-10-17T08:08:06;17.00;99.90
23124;DHT22;11731;48.592;8.858;2022-10-17T08:10:33;17.20;99.90
23124;DHT22;11731;48.592;8.858;2022-10-17T08:13:01;17.30;99.90
23124;DHT22;11731;48.592;8.858;2022-10-17T08:15:28;17.40;99.90
23124;DHT22;11731;48.592;8.858;2022-10-17T08:17:55;17.70;99.90
23124;DHT22;11731;48.592;8.858;2022-10-17T08:20:22;17.80;99.90
23124;DHT22;11731;48.592;8.858;2022-10-17T08:22:52;17.90;99.90
23124;DHT22;11731;48.592;8.858;2022-10-17T08:25:20;18.00;99.90
23124;DHT22;11731;48.592;8.858;2022-10-17T08:27:47;18.20;99.90
23124;DHT22;11731;48.592;8.858;2022-10-17T08:30:16;18.30;99.90
23124;DHT22;11731;48.592;8.858;2022-10-17T08:32:43;18.50;99.90
23124;DHT22;11731;48.592;8.858;2022-10-17T08:35:09;18.80;99.90
23124;DHT22;11731;48.592;8.858;2022-10-17T08:37:36;18.90;99.90
23124;DHT22;11731;48.592;8.858;2022-10-17T08:40:04;19.00;99.90
23124;DHT22;11731;48.592;8.858;2022-10-17T08:42:58;19.20;99.90
23124;DHT22;11731;48.592;8.858;2022-10-17T08:45:30;19.30;99.90
23124;DHT22;11731;48.592;8.858;2022-10-17T08:47:59;19.30;99.90
23124;DHT22;11731;48.592;8.858;2022-10-17T08:50:31;19.50;99.90
23124;DHT22;11731;48.592;8.858;2022-10-17T08:53:03;19.80;99.90
23124;DHT22;11731;48.592;8.858;2022-10-17T09:00:38;20.20;99.90
23124;DHT22;11731;48.592;8.858;2022-10-17T09:03:32;20.40;99.90
23124;DHT22;11731;48.592;8.858;2022-10-17T09:06:37;20.50;99.90
23124;DHT22;11731;48.592;8.858;2022-10-17T09:09:18;20.40;99.90
23124;DHT22;11731;48.592;8.858;2022-10-17T09:11:55;20.40;99.90
23124;DHT22;11731;48.592;8.858;2022-10-17T09:18:25;20.50;99.90
23124;DHT22;11731;48.592;8.858;2022-10-17T09:20:55;19.80;99.90
23124;DHT22;11731;48.592;8.858;2022-10-17T09:23:26;20.10;99.90
23124;DHT22;11731;48.592;8.858;2022-10-17T09:32:15;20.30;99.90
23124;DHT22;11731;48.592;8.858;2022-10-17T09:34:54;20.30;99.90
23124;DHT22;11731;48.592;8.858;2022-10-17T09:38:00;20.10;99.90
23124;DHT22;11731;48.592;8.858;2022-10-17T09:43:58;20.70;99.90
23124;DHT22;11731;48.592;8.858;2022-10-17T09:50:04;21.20;99.90
23124;DHT22;11731;48.592;8.858;2022-10-17T09:52:38;21.50;99.90
23124;DHT22;11731;48.592;8.858;2022-10-17T09:55:50;21.70;99.90
23124;DHT22;11731;48.592;8.858;2022-10-17T10:01:23;22.00;99.90
23124;DHT22;11731;48.592;8.858;2022-10-17T10:04:09;22.00;99.90
23124;DHT22;11731;48.592;8.858;2022-10-17T10:06:38;22.10;99.90
23124;DHT22;11731;48.592;8.858;2022-10-17T10:09:05;22.40;99.90
23124;DHT22;11731;48.592;8.858;2022-10-17T10:11:48;22.50;99.90
23124;DHT22;11731;48.592;8.858;2022-10-17T10:14:21;22.50;99.90
23124;DHT22;11731;48.592;8.858;2022-10-17T10:16:57;22.50;99.90
23124;DHT22;11731;48.592;8.858;2022-10-17T10:22:42;22.70;99.90
23124;DHT22;11731;48.592;8.858;2022-10-17T10:25:33;22.50;99.90
23124;DHT22;11731;48.592;8.858;2022-10-17T10:28:09;22.40;99.90
23124;DHT22;11731;48.592;8.858;2022-10-17T10:31:00;22.50;99.90
23124;DHT22;11731;48.592;8.858;2022-10-17T10:33:29;22.70;99.90
23124;DHT22;11731;48.592;8.858;2022-10-17T10:37:47;22.90;99.90
23124;DHT22;11731;48.592;8.858;2022-10-17T10:39:47;23.10;99.90
23124;DHT22;11731;48.592;8.858;2022-10-17T10:42:25;23.30;99.90
23124;DHT22;11731;48.592;8.858;2022-10-17T10:44:57;23.30;99.90
23124;DHT22;11731;48.592;8.858;2022-10-17T10:47:27;23.30;99.90
23124;DHT22;11731;48.592;8.858;2022-10-17T10:50:17;23.30;99.90
23124;DHT22;11731;48.592;8.858;2022-10-17T10:52:49;23.50;99.90
23124;DHT22;11731;48.592;8.858;2022-10-17T10:55:23;23.60;99.90
23124;DHT22;11731;48.592;8.858;2022-10-17T10:57:53;23.60;99.90
23124;DHT22;11731;48.592;8.858;2022-10-17T11:00:25;23.70;99.90
23124;DHT22;11731;48.592;8.858;2022-10-17T11:03:00;23.80;99.90
23124;DHT22;11731;48.592;8.858;2022-10-17T11:05:38;24.00;99.90
23124;DHT22;11731;48.592;8.858;2022-10-17T11:08:15;24.10;99.90
23124;DHT22;11731;48.592;8.858;2022-10-17T11:10:58;23.80;99.90
23124;DHT22;11731;48.592;8.858;2022-10-17T11:19:36;24.30;99.90
23124;DHT22;11731;48.592;8.858;2022-10-17T11:22:15;24.40;99.90
23124;DHT22;11731;48.592;8.858;2022-10-17T11:24:50;24.50;99.90
23124;DHT22;11731;48.592;8.858;2022-10-17T11:27:21;24.50;99.90
23124;DHT22;11731;48.592;8.858;2022-10-17T11:29:49;24.50;99.90
23124;DHT22;11731;48.592;8.858;2022-10-17T11:32:30;24.40;99.90
23124;DHT22;11731;48.592;8.858;2022-10-17T11:35:00;24.50;99.90
23124;DHT22;11731;48.592;8.858;2022-10-17T11:37:32;24.70;99.90
23124;DHT22;11731;48.592;8.858;2022-10-17T11:40:03;24.80;99.90
23124;DHT22;11731;48.592;8.858;2022-10-17T11:42:40;25.10;99.90
23124;DHT22;11731;48.592;8.858;2022-10-17T11:45:12;25.10;99.90
23124;DHT22;11731;48.592;8.858;2022-10-17T11:47:44;25.20;99.90
23124;DHT22;11731;48.592;8.858;2022-10-17T11:50:19;25.30;99.90
23124;DHT22;11731;48.592;8.858;2022-10-17T11:52:50;24.80;99.00
23124;DHT22;11731;48.592;8.858;2022-10-17T11:55:21;24.20;97.10
23124;DHT22;11731;48.592;8.858;2022-10-17T11:57:56;23.80;96.80
23124;DHT22;11731;48.592;8.858;2022-10-17T12:00:41;24.00;96.30
23124;DHT22;11731;48.592;8.858;2022-10-17T12:03:25;23.90;95.40
23124;DHT22;11731;48.592;8.858;2022-10-17T12:05:59;24.10;95.30
23124;DHT22;11731;48.592;8.858;2022-10-17T12:08:35;24.20;94.70
23124;DHT22;11731;48.592;8.858;2022-10-17T12:11:07;23.90;94.70
23124;DHT22;11731;48.592;8.858;2022-10-17T12:13:50;24.10;95.20
23124;DHT22;11731;48.592;8.858;2022-10-17T12:16:42;24.50;94.60
23124;DHT22;11731;48.592;8.858;2022-10-17T12:19:24;24.50;94.50
23124;DHT22;11731;48.592;8.858;2022-10-17T12:24:41;24.60;93.90
23124;DHT22;11731;48.592;8.858;2022-10-17T12:27:39;24.60;93.50
23124;DHT22;11731;48.592;8.858;2022-10-17T12:30:22;24.70;93.50
23124;DHT22;11731;48.592;8.858;2022-10-17T12:32:59;24.50;93.70
23124;DHT22;11731;48.592;8.858;2022-10-17T12:35:29;24.80;94.10
23124;DHT22;11731;48.592;8.858;2022-10-17T12:38:17;24.90;94.10
23124;DHT22;11731;48.592;8.858;2022-10-17T12:41:03;24.90;93.70
23124;DHT22;11731;48.592;8.858;2022-10-17T12:43:54;25.10;92.90
23124;DHT22;11731;48.592;8.858;2022-10-17T12:46:46;25.10;92.20
23124;DHT22;11731;48.592;8.858;2022-10-17T12:49:41;24.90;93.60
23124;DHT22;11731;48.592;8.858;2022-10-17T12:52:22;25.10;92.90
23124;DHT22;11731;48.592;8.858;2022-10-17T12:54:54;25.00;92.80
23124;DHT22;11731;48.592;8.858;2022-10-17T12:57:26;25.10;92.60
23124;DHT22;11731;48.592;8.858;2022-10-17T12:59:56;25.20;92.90
23124;DHT22;11731;48.592;8.858;2022-10-17T13:02:26;25.20;92.90
23124;DHT22;11731;48.592;8.858;2022-10-17T13:05:02;25.10;93.00
23124;DHT22;11731;48.592;8.858;2022-10-17T13:07:33;24.90;93.30
23124;DHT22;11731;48.592;8.858;2022-10-17T13:10:01;24.80;93.10
23124;DHT22;11731;48.592;8.858;2022-10-17T13:12:31;24.80;93.10
23124;DHT22;11731;48.592;8.858;2022-10-17T13:15:03;24.80;93.10
23124;DHT22;11731;48.592;8.858;2022-10-17T13:17:30;24.80;92.80
23124;DHT22;11731;48.592;8.858;2022-10-17T13:19:57;25.00;93.00
23124;DHT22;11731;48.592;8.858;2022-10-17T13:22:25;25.20;93.00
23124;DHT22;11731;48.592;8.858;2022-10-17T13:25:05;25.20;92.90
23124;DHT22;11731;48.592;8.858;2022-10-17T13:27:34;25.10;93.00
23124;DHT22;11731;48.592;8.858;2022-10-17T13:30:21;25.30;93.00
23124;DHT22;11731;48.592;8.858;2022-10-17T13:32:48;25.60;92.20
23124;DHT22;11731;48.592;8.858;2022-10-17T13:35:20;25.80;92.30
23124;DHT22;11731;48.592;8.858;2022-10-17T13:37:49;25.50;92.90
23124;DHT22;11731;48.592;8.858;2022-10-17T13:40:20;25.40;92.90
23124;DHT22;11731;48.592;8.858;2022-10-17T13:42:50;25.60;92.10
23124;DHT22;11731;48.592;8.858;2022-10-17T13:45:21;25.60;93.00
23124;DHT22;11731;48.592;8.858;2022-10-17T13:48:03;25.60;92.50
23124;DHT22;11731;48.592;8.858;2022-10-17T13:50:33;25.30;93.00
23124;DHT22;11731;48.592;8.858;2022-10-17T13:53:17;25.20;92.90
23124;DHT22;11731;48.592;8.858;2022-10-17T13:55:54;25.40;93.20
23124;DHT22;11731;48.592;8.858;2022-10-17T13:58:24;25.00;92.30
23124;DHT22;11731;48.592;8.858;2022-10-17T14:00:52;25.10;92.20
23124;DHT22;11731;48.592;8.858;2022-10-17T14:03:20;25.20;92.00
23124;DHT22;11731;48.592;8.858;2022-10-17T14:06:15;25.10;92.10
23124;DHT22;11731;48.592;8.858;2022-10-17T14:08:53;25.00;92.30
23124;DHT22;11731;48.592;8.858;2022-10-17T14:11:34;25.00;92.70
23124;DHT22;11731;48.592;8.858;2022-10-17T14:14:05;25.30;92.00
23124;DHT22;11731;48.592;8.858;2022-10-17T14:16:35;25.50;91.90
23124;DHT22;11731;48.592;8.858;2022-10-17T14:19:03;25.70;91.80
23124;DHT22;11731;48.592;8.858;2022-10-17T14:21:31;25.80;91.30
23124;DHT22;11731;48.592;8.858;2022-10-17T14:24:28;25.50;91.20
23124;DHT22;11731;48.592;8.858;2022-10-17T14:26:59;25.30;92.10
23124;DHT22;11731;48.592;8.858;2022-10-17T14:29:30;25.30;92.00
23124;DHT22;11731;48.592;8.858;2022-10-17T14:32:03;25.60;91.80
23124;DHT22;11731;48.592;8.858;2022-10-17T14:34:33;25.60;91.50
23124;DHT22;11731;48.592;8.858;2022-10-17T14:37:02;25.50;91.90
23124;DHT22;11731;48.592;8.858;2022-10-17T14:39:40;25.80;91.80
23124;DHT22;11731;48.592;8.858;2022-10-17T14:42:20;25.90;91.30
23124;DHT22;11731;48.592;8.858;2022-10-17T14:44:48;26.10;91.40
23124;DHT22;11731;48.592;8.858;2022-10-17T14:47:19;25.90;91.50
23124;DHT22;11731;48.592;8.858;2022-10-17T14:49:49;26.10;91.70
23124;DHT22;11731;48.592;8.858;2022-10-17T14:52:28;25.90;91.00
23124;DHT22;11731;48.592;8.858;2022-10-17T14:54:57;25.80;91.60
23124;DHT22;11731;48.592;8.858;2022-10-17T14:57:40;25.80;91.20
23124;DHT22;11731;48.592;8.858;2022-10-17T15:00:12;25.70;91.60
23124;DHT22;11731;48.592;8.858;2022-10-17T15:02:40;25.60;92.40
23124;DHT22;11731;48.592;8.858;2022-10-17T15:05:11;25.80;91.10
23124;DHT22;11731;48.592;8.858;2022-10-17T15:07:38;25.90;91.50
23124;DHT22;11731;48.592;8.858;2022-10-17T15:10:24;26.10;92.00
23124;DHT22;11731;48.592;8.858;2022-10-17T15:13:04;26.30;91.80
23124;DHT22;11731;48.592;8.858;2022-10-17T15:15:31;26.30;91.00
23124;DHT22;11731;48.592;8.858;2022-10-17T15:17:58;26.30;91.60
23124;DHT22;11731;48.592;8.858;2022-10-17T15:20:26;26.00;91.90
23124;DHT22;11731;48.592;8.858;2022-10-17T15:23:04;25.90;92.50
23124;DHT22;11731;48.592;8.858;2022-10-17T15:25:54;26.00;92.10
23124;DHT22;11731;48.592;8.858;2022-10-17T15:28:27;26.10;92.20
23124;DHT22;11731;48.592;8.858;2022-10-17T15:30:54;26.30;90.50
23124;DHT22;11731;48.592;8.858;2022-10-17T15:33:21;26.40;90.90
23124;DHT22;11731;48.592;8.858;2022-10-17T15:39:12;26.20;92.00
23124;DHT22;11731;48.592;8.858;2022-10-17T15:41:38;25.90;91.30
23124;DHT22;11731;48.592;8.858;2022-10-17T15:44:07;25.80;91.50
23124;DHT22;11731;48.592;8.858;2022-10-17T15:46:34;25.80;92.30
23124;DHT22;11731;48.592;8.858;2022-10-17T15:49:03;25.80;92.60
23124;DHT22;11731;48.592;8.858;2022-10-17T15:51:30;25.90;92.50
23124;DHT22;11731;48.592;8.858;2022-10-17T15:53:57;26.10;92.20
23124;DHT22;11731;48.592;8.858;2022-10-17T15:56:27;25.90;92.50
23124;DHT22;11731;48.592;8.858;2022-10-17T15:59:39;25.70;93.90
23124;DHT22;11731;48.592;8.858;2022-10-17T16:02:20;25.50;94.10
23124;DHT22;11731;48.592;8.858;2022-10-17T16:04:49;25.10;94.80
23124;DHT22;11731;48.592;8.858;2022-10-17T16:07:52;24.80;95.10
23124;DHT22;11731;48.592;8.858;2022-10-17T16:10:20;24.40;95.10
23124;DHT22;11731;48.592;8.858;2022-10-17T16:12:47;24.00;96.40
23124;DHT22;11731;48.592;8.858;2022-10-17T16:15:18;24.00;97.40
23124;DHT22;11731;48.592;8.858;2022-10-17T16:17:49;23.60;97.60
23124;DHT22;11731;48.592;8.858;2022-10-17T16:20:30;23.20;98.20
23124;DHT22;11731;48.592;8.858;2022-10-17T16:23:03;23.00;97.60
23124;DHT22;11731;48.592;8.858;2022-10-17T16:25:33;22.90;98.80
23124;DHT22;11731;48.592;8.858;2022-10-17T16:28:03;23.10;98.30
23124;DHT22;11731;48.592;8.858;2022-10-17T16:30:42;23.30;97.60
23124;DHT22;11731;48.592;8.858;2022-10-17T16:33:12;23.10;98.70
23124;DHT22;11731;48.592;8.858;2022-10-17T16:35:39;22.50;98.00
23124;DHT22;11731;48.592;8.858;2022-10-17T16:38:07;22.30;99.10
23124;DHT22;11731;48.592;8.858;2022-10-17T16:40:37;22.20;99.30
23124;DHT22;11731;48.592;8.858;2022-10-17T16:43:04;21.70;99.90
23124;DHT22;11731;48.592;8.858;2022-10-17T16:45:31;21.50;99.90